Austin, TX (78758)

6:13 PM CST on February 28, 2015 (GMT -0600)
Quail Hollow, North Austin | Change Station
CLOSE
Current Station
Personal Weather Station
Location: Austin, TX
Elevation: 774 ft
Nearby Weather Stations

Elev 774 ft 30.39 °N, 97.70 °W | Updated 1 second ago

Overcast
Overcast
34.4 °F
Feels Like 34 °F
N
0.0
Wind Variable Wind from NNE
Gusts 9.0 mph

Today
High -- | Low -- °F
--% Chance of Precip.
Yesterday
High -- | Low -- °F
Precip. -- in
6:58 AM 6:28 PM
Waxing Gibbous, 81% visible
Pressure 30.30 in
Visibility 2.5 miles
Clouds Overcast 800 ft
Windchill 34 °F
Dew Point 32 °F
Humidity 92%
Rainfall 0.07 in
Snow Depth Not available.
UV 0 out of 12
Pollen 8.30 out of 12
Air Quality Not available.
Flu Activity Not available.
METAR KATT 282351Z AUTO 35004KT 2 1/2SM BR OVC008 02/01 A3026 RMK AO2 RAB2257E06UPB06E10 CIG 005V011 SLP258 P0001 60003 T00170011 10022 20011 53001 $

More Conditions Fewer Conditions

Pressure 30.30 in
Visibility 2.5 miles
Clouds Overcast 800 ft
Windchill 34 °F
Dew Point 32 °F
Humidity 92%
Rainfall 0.07 in
Snow Depth Not available.
UV 0 out of 12
Pollen 8.30 out of 12
Air Quality Not available.
Flu Activity Not available.
METAR KATT 282351Z AUTO 35004KT 2 1/2SM BR OVC008 02/01 A3026 RMK AO2 RAB2257E06UPB06E10 CIG 005V011 SLP258 P0001 60003 T00170011 10022 20011 53001 $

More Conditions Fewer Conditions

10-Day Weather Forecast

Almanac

Astronomy

Feb. 28, 2015 Rise Set
Actual Time
Civil Twilight
Nautical Twilight
Astronomical Twilight
Moon
Length of Visible Light
Length of Day
Tomorrow will be .
, % of the Moon is Illuminated

Today's Extremes

State Highs State Lows

Community

WunderPhotos

Upload Photos

1,801,176 photos uploaded!

WunderBlogs® & News

Nearby

Air Quality

  Air Quality AQ Index Pollutant
Not available.

Snow Depth

Station Depth Elevation

Earthquake Activity

City Distance Mag. Time & Date
Minimum magnitude displayed is 2.5.

Coastal Water Temperatures

Place Temperature

Nearby Weather Stations